sensor_id;sensor_type;location;lat;lon;timestamp;temperature;humidity
20706;DHT22;10514;49.468;11.044;2023-09-30T00:02:07;16.80;90.10
20706;DHT22;10514;49.468;11.044;2023-09-30T00:04:32;16.70;90.10
20706;DHT22;10514;49.468;11.044;2023-09-30T00:06:58;16.70;90.20
20706;DHT22;10514;49.468;11.044;2023-09-30T00:09:24;16.70;90.30
20706;DHT22;10514;49.468;11.044;2023-09-30T00:11:50;16.60;90.40
20706;DHT22;10514;49.468;11.044;2023-09-30T00:14:15;16.60;90.50
20706;DHT22;10514;49.468;11.044;2023-09-30T00:16:42;16.60;90.50
20706;DHT22;10514;49.468;11.044;2023-09-30T00:19:08;16.60;90.60
20706;DHT22;10514;49.468;11.044;2023-09-30T00:21:35;16.50;90.80
20706;DHT22;10514;49.468;11.044;2023-09-30T00:24:00;16.50;90.80
20706;DHT22;10514;49.468;11.044;2023-09-30T00:26:26;16.40;90.70
20706;DHT22;10514;49.468;11.044;2023-09-30T00:28:51;16.40;90.80
20706;DHT22;10514;49.468;11.044;2023-09-30T00:31:17;16.50;90.90
20706;DHT22;10514;49.468;11.044;2023-09-30T00:33:42;16.40;90.90
20706;DHT22;10514;49.468;11.044;2023-09-30T00:36:11;16.40;90.80
20706;DHT22;10514;49.468;11.044;2023-09-30T00:38:37;16.40;90.80
20706;DHT22;10514;49.468;11.044;2023-09-30T00:41:03;16.30;90.90
20706;DHT22;10514;49.468;11.044;2023-09-30T00:43:29;16.30;90.90
20706;DHT22;10514;49.468;11.044;2023-09-30T00:46:23;16.20;91.10
20706;DHT22;10514;49.468;11.044;2023-09-30T00:48:51;16.20;91.30
20706;DHT22;10514;49.468;11.044;2023-09-30T00:51:17;16.30;91.40
20706;DHT22;10514;49.468;11.044;2023-09-30T00:53:43;16.30;91.40
20706;DHT22;10514;49.468;11.044;2023-09-30T00:56:09;16.30;91.40
20706;DHT22;10514;49.468;11.044;2023-09-30T00:58:38;16.30;91.30
20706;DHT22;10514;49.468;11.044;2023-09-30T01:01:04;16.40;91.30
20706;DHT22;10514;49.468;11.044;2023-09-30T01:03:30;16.50;91.20
20706;DHT22;10514;49.468;11.044;2023-09-30T01:05:56;16.50;91.10
20706;DHT22;10514;49.468;11.044;2023-09-30T01:08:22;16.50;91.00
20706;DHT22;10514;49.468;11.044;2023-09-30T01:10:48;16.60;91.00
20706;DHT22;10514;49.468;11.044;2023-09-30T01:13:14;16.60;91.00
20706;DHT22;10514;49.468;11.044;2023-09-30T01:15:39;16.60;90.90
20706;DHT22;10514;49.468;11.044;2023-09-30T01:18:05;16.70;90.90
20706;DHT22;10514;49.468;11.044;2023-09-30T01:20:31;16.70;90.90
20706;DHT22;10514;49.468;11.044;2023-09-30T01:22:58;16.70;90.80
20706;DHT22;10514;49.468;11.044;2023-09-30T01:25:24;16.70;90.80
20706;DHT22;10514;49.468;11.044;2023-09-30T01:27:50;16.70;90.80
20706;DHT22;10514;49.468;11.044;2023-09-30T01:30:20;16.70;90.70
20706;DHT22;10514;49.468;11.044;2023-09-30T01:32:47;16.70;90.70
20706;DHT22;10514;49.468;11.044;2023-09-30T01:35:13;16.70;90.60
20706;DHT22;10514;49.468;11.044;2023-09-30T01:37:39;16.80;90.70
20706;DHT22;10514;49.468;11.044;2023-09-30T01:40:05;16.80;90.60
20706;DHT22;10514;49.468;11.044;2023-09-30T01:42:33;16.80;90.60
20706;DHT22;10514;49.468;11.044;2023-09-30T01:44:59;16.80;90.60
20706;DHT22;10514;49.468;11.044;2023-09-30T01:47:24;16.80;90.60
20706;DHT22;10514;49.468;11.044;2023-09-30T01:49:50;16.80;90.50
20706;DHT22;10514;49.468;11.044;2023-09-30T01:52:15;16.80;90.60
20706;DHT22;10514;49.468;11.044;2023-09-30T01:54:41;16.80;90.60
20706;DHT22;10514;49.468;11.044;2023-09-30T01:57:06;16.90;90.60
20706;DHT22;10514;49.468;11.044;2023-09-30T01:59:32;16.80;90.70
20706;DHT22;10514;49.468;11.044;2023-09-30T02:01:57;16.90;90.60
20706;DHT22;10514;49.468;11.044;2023-09-30T02:04:23;16.90;90.60
20706;DHT22;10514;49.468;11.044;2023-09-30T02:06:48;16.90;90.60
20706;DHT22;10514;49.468;11.044;2023-09-30T02:09:14;16.80;90.60
20706;DHT22;10514;49.468;11.044;2023-09-30T02:11:39;16.90;90.60
20706;DHT22;10514;49.468;11.044;2023-09-30T02:14:06;16.90;90.60
20706;DHT22;10514;49.468;11.044;2023-09-30T02:16:32;16.90;90.60
20706;DHT22;10514;49.468;11.044;2023-09-30T02:18:58;16.90;90.80
20706;DHT22;10514;49.468;11.044;2023-09-30T02:21:23;16.90;90.80
20706;DHT22;10514;49.468;11.044;2023-09-30T02:23:49;16.90;91.10
20706;DHT22;10514;49.468;11.044;2023-09-30T02:26:15;17.00;91.20
20706;DHT22;10514;49.468;11.044;2023-09-30T02:28:40;17.00;91.40
20706;DHT22;10514;49.468;11.044;2023-09-30T02:31:06;16.90;91.80
20706;DHT22;10514;49.468;11.044;2023-09-30T02:33:33;16.90;91.90
20706;DHT22;10514;49.468;11.044;2023-09-30T02:36:01;16.90;91.90
20706;DHT22;10514;49.468;11.044;2023-09-30T02:38:26;16.90;92.10
20706;DHT22;10514;49.468;11.044;2023-09-30T02:40:54;16.90;92.40
20706;DHT22;10514;49.468;11.044;2023-09-30T02:43:20;16.90;92.60
20706;DHT22;10514;49.468;11.044;2023-09-30T02:45:46;16.90;92.70
20706;DHT22;10514;49.468;11.044;2023-09-30T02:48:11;16.80;92.80
20706;DHT22;10514;49.468;11.044;2023-09-30T02:50:37;16.80;92.90
20706;DHT22;10514;49.468;11.044;2023-09-30T02:53:04;16.90;93.00
20706;DHT22;10514;49.468;11.044;2023-09-30T02:55:30;16.80;93.10
20706;DHT22;10514;49.468;11.044;2023-09-30T02:57:56;16.80;93.20
20706;DHT22;10514;49.468;11.044;2023-09-30T03:00:23;16.80;93.30
20706;DHT22;10514;49.468;11.044;2023-09-30T03:02:55;16.80;93.30
20706;DHT22;10514;49.468;11.044;2023-09-30T03:05:21;16.70;93.50
20706;DHT22;10514;49.468;11.044;2023-09-30T03:07:48;16.80;93.50
20706;DHT22;10514;49.468;11.044;2023-09-30T03:10:15;16.80;93.50
20706;DHT22;10514;49.468;11.044;2023-09-30T03:12:48;16.70;93.60
20706;DHT22;10514;49.468;11.044;2023-09-30T03:15:14;16.70;93.80
20706;DHT22;10514;49.468;11.044;2023-09-30T03:17:41;16.70;94.00
20706;DHT22;10514;49.468;11.044;2023-09-30T03:20:08;16.70;94.60
20706;DHT22;10514;49.468;11.044;2023-09-30T03:22:43;16.70;94.60
20706;DHT22;10514;49.468;11.044;2023-09-30T03:25:10;16.60;94.00
20706;DHT22;10514;49.468;11.044;2023-09-30T03:27:35;16.40;93.50
20706;DHT22;10514;49.468;11.044;2023-09-30T03:30:03;16.20;93.30
20706;DHT22;10514;49.468;11.044;2023-09-30T03:32:31;16.20;93.80
20706;DHT22;10514;49.468;11.044;2023-09-30T03:34:58;16.10;93.90
20706;DHT22;10514;49.468;11.044;2023-09-30T03:37:26;16.00;94.10
20706;DHT22;10514;49.468;11.044;2023-09-30T03:39:54;16.00;93.70
20706;DHT22;10514;49.468;11.044;2023-09-30T03:42:20;15.90;93.90
20706;DHT22;10514;49.468;11.044;2023-09-30T03:44:45;15.80;93.90
20706;DHT22;10514;49.468;11.044;2023-09-30T03:47:11;15.80;93.60
20706;DHT22;10514;49.468;11.044;2023-09-30T03:49:36;15.70;93.60
20706;DHT22;10514;49.468;11.044;2023-09-30T03:52:04;15.70;93.70
20706;DHT22;10514;49.468;11.044;2023-09-30T03:54:30;15.60;93.40
20706;DHT22;10514;49.468;11.044;2023-09-30T03:56:55;15.50;93.50
20706;DHT22;10514;49.468;11.044;2023-09-30T03:59:21;15.50;93.30
20706;DHT22;10514;49.468;11.044;2023-09-30T04:01:46;13.70;93.10
20706;DHT22;10514;49.468;11.044;2023-09-30T04:04:12;15.40;93.70
20706;DHT22;10514;49.468;11.044;2023-09-30T04:06:39;15.40;94.00
20706;DHT22;10514;49.468;11.044;2023-09-30T04:09:07;15.30;94.20
20706;DHT22;10514;49.468;11.044;2023-09-30T04:11:36;15.30;94.30
20706;DHT22;10514;49.468;11.044;2023-09-30T04:14:03;15.20;94.60
20706;DHT22;10514;49.468;11.044;2023-09-30T04:16:29;15.30;94.60
20706;DHT22;10514;49.468;11.044;2023-09-30T04:18:55;15.20;94.60
20706;DHT22;10514;49.468;11.044;2023-09-30T04:21:21;15.20;94.90
20706;DHT22;10514;49.468;11.044;2023-09-30T04:23:46;15.10;95.20
20706;DHT22;10514;49.468;11.044;2023-09-30T04:26:12;15.10;95.20
20706;DHT22;10514;49.468;11.044;2023-09-30T04:28:38;15.10;95.20
20706;DHT22;10514;49.468;11.044;2023-09-30T04:31:03;15.10;95.60
20706;DHT22;10514;49.468;11.044;2023-09-30T04:33:30;15.10;95.50
20706;DHT22;10514;49.468;11.044;2023-09-30T04:35:55;15.00;95.50
20706;DHT22;10514;49.468;11.044;2023-09-30T04:38:21;15.10;95.50
20706;DHT22;10514;49.468;11.044;2023-09-30T04:40:46;15.00;95.40
20706;DHT22;10514;49.468;11.044;2023-09-30T04:43:17;15.00;95.30
20706;DHT22;10514;49.468;11.044;2023-09-30T04:45:42;14.90;95.70
20706;DHT22;10514;49.468;11.044;2023-09-30T04:48:08;14.90;95.70
20706;DHT22;10514;49.468;11.044;2023-09-30T04:50:34;14.90;95.90
20706;DHT22;10514;49.468;11.044;2023-09-30T04:52:59;14.90;95.70
20706;DHT22;10514;49.468;11.044;2023-09-30T04:55:25;14.80;95.70
20706;DHT22;10514;49.468;11.044;2023-09-30T04:57:51;14.80;95.60
20706;DHT22;10514;49.468;11.044;2023-09-30T05:00:19;14.90;95.40
20706;DHT22;10514;49.468;11.044;2023-09-30T05:02:50;14.90;95.40
20706;DHT22;10514;49.468;11.044;2023-09-30T05:05:17;14.90;95.60
20706;DHT22;10514;49.468;11.044;2023-09-30T05:07:43;14.90;95.80
20706;DHT22;10514;49.468;11.044;2023-09-30T05:10:09;14.90;95.80
20706;DHT22;10514;49.468;11.044;2023-09-30T05:12:36;14.80;95.90
20706;DHT22;10514;49.468;11.044;2023-09-30T05:15:01;14.80;96.30
20706;DHT22;10514;49.468;11.044;2023-09-30T05:17:27;14.80;96.50
20706;DHT22;10514;49.468;11.044;2023-09-30T05:19:55;14.80;96.50
20706;DHT22;10514;49.468;11.044;2023-09-30T05:22:21;14.80;96.50
20706;DHT22;10514;49.468;11.044;2023-09-30T05:24:52;14.70;96.70
20706;DHT22;10514;49.468;11.044;2023-09-30T05:27:18;14.70;96.60
20706;DHT22;10514;49.468;11.044;2023-09-30T05:29:43;14.70;97.00
20706;DHT22;10514;49.468;11.044;2023-09-30T05:32:09;14.70;97.10
20706;DHT22;10514;49.468;11.044;2023-09-30T05:34:34;14.70;97.10
20706;DHT22;10514;49.468;11.044;2023-09-30T05:37:00;14.70;97.10
20706;DHT22;10514;49.468;11.044;2023-09-30T05:39:26;14.70;97.10
20706;DHT22;10514;49.468;11.044;2023-09-30T05:41:54;14.70;97.20
20706;DHT22;10514;49.468;11.044;2023-09-30T05:44:20;14.70;97.50
20706;DHT22;10514;49.468;11.044;2023-09-30T05:46:46;14.70;97.30
20706;DHT22;10514;49.468;11.044;2023-09-30T05:49:12;14.70;97.40
20706;DHT22;10514;49.468;11.044;2023-09-30T05:51:40;14.70;97.30
20706;DHT22;10514;49.468;11.044;2023-09-30T05:54:07;14.70;97.10
20706;DHT22;10514;49.468;11.044;2023-09-30T05:56:33;14.80;97.40
20706;DHT22;10514;49.468;11.044;2023-09-30T05:58:58;14.80;97.30
20706;DHT22;10514;49.468;11.044;2023-09-30T06:01:24;14.80;97.40
20706;DHT22;10514;49.468;11.044;2023-09-30T06:03:49;14.80;97.10
20706;DHT22;10514;49.468;11.044;2023-09-30T06:06:15;14.80;97.30
20706;DHT22;10514;49.468;11.044;2023-09-30T06:08:43;14.80;97.50
20706;DHT22;10514;49.468;11.044;2023-09-30T06:11:19;14.80;97.20
20706;DHT22;10514;49.468;11.044;2023-09-30T06:13:45;14.80;97.60
20706;DHT22;10514;49.468;11.044;2023-09-30T06:16:12;14.90;97.50
20706;DHT22;10514;49.468;11.044;2023-09-30T06:18:37;15.00;97.70
20706;DHT22;10514;49.468;11.044;2023-09-30T06:21:03;15.10;97.60
20706;DHT22;10514;49.468;11.044;2023-09-30T06:23:32;15.20;97.20
20706;DHT22;10514;49.468;11.044;2023-09-30T06:25:59;15.20;97.20
20706;DHT22;10514;49.468;11.044;2023-09-30T06:28:28;15.30;97.00
20706;DHT22;10514;49.468;11.044;2023-09-30T06:30:57;15.30;96.80
20706;DHT22;10514;49.468;11.044;2023-09-30T06:33:22;15.40;97.00
20706;DHT22;10514;49.468;11.044;2023-09-30T06:35:48;15.40;96.90
20706;DHT22;10514;49.468;11.044;2023-09-30T06:38:20;15.40;96.40
20706;DHT22;10514;49.468;11.044;2023-09-30T06:40:46;15.40;96.70
20706;DHT22;10514;49.468;11.044;2023-09-30T06:43:13;15.40;96.60
20706;DHT22;10514;49.468;11.044;2023-09-30T06:45:44;15.50;96.60
20706;DHT22;10514;49.468;11.044;2023-09-30T06:48:11;15.50;96.40
20706;DHT22;10514;49.468;11.044;2023-09-30T06:50:44;15.60;96.00
20706;DHT22;10514;49.468;11.044;2023-09-30T06:53:10;15.60;96.20
20706;DHT22;10514;49.468;11.044;2023-09-30T06:55:38;15.50;95.70
20706;DHT22;10514;49.468;11.044;2023-09-30T06:58:03;15.60;96.20
20706;DHT22;10514;49.468;11.044;2023-09-30T07:00:33;15.60;96.20
20706;DHT22;10514;49.468;11.044;2023-09-30T07:02:59;15.60;96.30
20706;DHT22;10514;49.468;11.044;2023-09-30T07:05:24;15.60;96.20
20706;DHT22;10514;49.468;11.044;2023-09-30T07:07:50;15.70;96.20
20706;DHT22;10514;49.468;11.044;2023-09-30T07:10:16;15.70;96.10
20706;DHT22;10514;49.468;11.044;2023-09-30T07:12:42;15.70;95.70
20706;DHT22;10514;49.468;11.044;2023-09-30T07:15:08;15.70;96.00
20706;DHT22;10514;49.468;11.044;2023-09-30T07:17:34;15.70;95.90
20706;DHT22;10514;49.468;11.044;2023-09-30T07:20:00;15.70;95.70
20706;DHT22;10514;49.468;11.044;2023-09-30T07:22:25;15.80;95.70
20706;DHT22;10514;49.468;11.044;2023-09-30T07:24:51;15.80;95.60
20706;DHT22;10514;49.468;11.044;2023-09-30T07:27:17;15.90;95.30
20706;DHT22;10514;49.468;11.044;2023-09-30T07:29:44;15.90;95.10
20706;DHT22;10514;49.468;11.044;2023-09-30T07:32:09;16.00;95.00
20706;DHT22;10514;49.468;11.044;2023-09-30T07:34:35;16.10;94.90
20706;DHT22;10514;49.468;11.044;2023-09-30T07:37:00;16.10;94.50
20706;DHT22;10514;49.468;11.044;2023-09-30T07:39:26;16.10;94.10
20706;DHT22;10514;49.468;11.044;2023-09-30T07:41:52;16.10;94.10
20706;DHT22;10514;49.468;11.044;2023-09-30T07:44:17;16.10;93.90
20706;DHT22;10514;49.468;11.044;2023-09-30T07:46:43;16.10;94.10
20706;DHT22;10514;49.468;11.044;2023-09-30T07:49:11;16.20;94.10
20706;DHT22;10514;49.468;11.044;2023-09-30T07:51:37;16.20;93.90
20706;DHT22;10514;49.468;11.044;2023-09-30T07:54:05;16.30;93.80
20706;DHT22;10514;49.468;11.044;2023-09-30T07:56:30;16.50;93.60
20706;DHT22;10514;49.468;11.044;2023-09-30T07:58:56;16.50;93.30
20706;DHT22;10514;49.468;11.044;2023-09-30T08:01:22;16.70;93.50
20706;DHT22;10514;49.468;11.044;2023-09-30T08:03:47;16.60;93.00
20706;DHT22;10514;49.468;11.044;2023-09-30T08:06:13;16.60;92.50
20706;DHT22;10514;49.468;11.044;2023-09-30T08:08:39;16.70;92.80
20706;DHT22;10514;49.468;11.044;2023-09-30T08:11:05;16.70;92.60
20706;DHT22;10514;49.468;11.044;2023-09-30T08:13:32;16.70;92.40
20706;DHT22;10514;49.468;11.044;2023-09-30T08:15:58;17.00;92.30
20706;DHT22;10514;49.468;11.044;2023-09-30T08:18:24;17.10;91.70
20706;DHT22;10514;49.468;11.044;2023-09-30T08:20:49;17.10;91.50
20706;DHT22;10514;49.468;11.044;2023-09-30T08:23:15;17.30;91.70
20706;DHT22;10514;49.468;11.044;2023-09-30T08:25:41;17.50;90.30
20706;DHT22;10514;49.468;11.044;2023-09-30T08:28:07;17.60;90.30
20706;DHT22;10514;49.468;11.044;2023-09-30T08:30:35;17.70;89.80
20706;DHT22;10514;49.468;11.044;2023-09-30T08:33:00;17.90;89.60
20706;DHT22;10514;49.468;11.044;2023-09-30T08:35:26;18.20;89.00
20706;DHT22;10514;49.468;11.044;2023-09-30T08:37:51;18.20;86.60
20706;DHT22;10514;49.468;11.044;2023-09-30T08:40:23;18.30;85.20
20706;DHT22;10514;49.468;11.044;2023-09-30T08:42:52;18.50;85.50
20706;DHT22;10514;49.468;11.044;2023-09-30T08:45:19;18.60;83.80
20706;DHT22;10514;49.468;11.044;2023-09-30T08:47:45;18.20;84.40
20706;DHT22;10514;49.468;11.044;2023-09-30T08:50:12;18.10;84.10
20706;DHT22;10514;49.468;11.044;2023-09-30T08:52:40;18.10;85.30
20706;DHT22;10514;49.468;11.044;2023-09-30T08:55:07;18.20;84.50
20706;DHT22;10514;49.468;11.044;2023-09-30T08:57:37;18.30;84.90
20706;DHT22;10514;49.468;11.044;2023-09-30T09:00:04;18.50;83.10
20706;DHT22;10514;49.468;11.044;2023-09-30T09:02:30;18.90;80.40
20706;DHT22;10514;49.468;11.044;2023-09-30T09:04:55;19.60;75.80
20706;DHT22;10514;49.468;11.044;2023-09-30T09:07:22;19.70;77.00
20706;DHT22;10514;49.468;11.044;2023-09-30T09:10:08;19.70;75.70
20706;DHT22;10514;49.468;11.044;2023-09-30T09:12:36;19.80;76.80
20706;DHT22;10514;49.468;11.044;2023-09-30T09:15:02;19.80;77.30
20706;DHT22;10514;49.468;11.044;2023-09-30T09:17:41;20.10;76.90
20706;DHT22;10514;49.468;11.044;2023-09-30T09:20:08;20.40;74.90
20706;DHT22;10514;49.468;11.044;2023-09-30T09:22:42;20.90;72.70
20706;DHT22;10514;49.468;11.044;2023-09-30T09:25:09;21.50;69.30
20706;DHT22;10514;49.468;11.044;2023-09-30T09:27:35;21.90;66.00
20706;DHT22;10514;49.468;11.044;2023-09-30T09:30:14;21.70;67.30
20706;DHT22;10514;49.468;11.044;2023-09-30T09:35:22;21.70;66.80
20706;DHT22;10514;49.468;11.044;2023-09-30T09:38:01;22.10;66.90
20706;DHT22;10514;49.468;11.044;2023-09-30T09:40:29;22.70;64.20
20706;DHT22;10514;49.468;11.044;2023-09-30T09:42:55;22.90;63.90
20706;DHT22;10514;49.468;11.044;2023-09-30T09:45:22;22.70;60.60
20706;DHT22;10514;49.468;11.044;2023-09-30T09:47:48;22.40;61.50
20706;DHT22;10514;49.468;11.044;2023-09-30T09:50:14;22.50;62.10
20706;DHT22;10514;49.468;11.044;2023-09-30T09:52:41;22.00;62.40
20706;DHT22;10514;49.468;11.044;2023-09-30T09:55:11;22.10;62.70
20706;DHT22;10514;49.468;11.044;2023-09-30T09:57:37;22.60;61.80
20706;DHT22;10514;49.468;11.044;2023-09-30T10:00:04;22.80;58.90
20706;DHT22;10514;49.468;11.044;2023-09-30T10:02:42;23.40;58.50
20706;DHT22;10514;49.468;11.044;2023-09-30T10:05:08;23.30;58.20
20706;DHT22;10514;49.468;11.044;2023-09-30T10:10:17;23.90;57.60
20706;DHT22;10514;49.468;11.044;2023-09-30T10:12:44;24.20;56.20
20706;DHT22;10514;49.468;11.044;2023-09-30T10:20:31;24.10;55.90
20706;DHT22;10514;49.468;11.044;2023-09-30T10:23:19;23.40;56.90
20706;DHT22;10514;49.468;11.044;2023-09-30T10:25:46;23.20;57.40
20706;DHT22;10514;49.468;11.044;2023-09-30T10:28:38;22.80;58.00
20706;DHT22;10514;49.468;11.044;2023-09-30T10:31:21;22.60;58.90
20706;DHT22;10514;49.468;11.044;2023-09-30T10:36:32;22.00;61.30
20706;DHT22;10514;49.468;11.044;2023-09-30T10:38:58;21.80;61.70
20706;DHT22;10514;49.468;11.044;2023-09-30T10:41:50;21.60;63.00
20706;DHT22;10514;49.468;11.044;2023-09-30T10:46:51;21.10;65.40
20706;DHT22;10514;49.468;11.044;2023-09-30T10:51:52;21.10;64.30
20706;DHT22;10514;49.468;11.044;2023-09-30T10:54:26;21.10;63.70
20706;DHT22;10514;49.468;11.044;2023-09-30T10:56:52;21.20;63.30
20706;DHT22;10514;49.468;11.044;2023-09-30T10:59:29;21.30;63.60
20706;DHT22;10514;49.468;11.044;2023-09-30T11:01:58;21.30;62.00
20706;DHT22;10514;49.468;11.044;2023-09-30T11:04:24;21.20;60.30
20706;DHT22;10514;49.468;11.044;2023-09-30T11:06:49;21.40;58.70
20706;DHT22;10514;49.468;11.044;2023-09-30T11:09:21;21.50;58.70
20706;DHT22;10514;49.468;11.044;2023-09-30T11:11:49;21.50;58.10
20706;DHT22;10514;49.468;11.044;2023-09-30T11:14:30;21.70;59.00
20706;DHT22;10514;49.468;11.044;2023-09-30T11:17:04;21.60;57.80
20706;DHT22;10514;49.468;11.044;2023-09-30T11:19:45;21.90;57.20
20706;DHT22;10514;49.468;11.044;2023-09-30T11:22:11;21.90;55.80
20706;DHT22;10514;49.468;11.044;2023-09-30T11:24:37;21.40;55.60
20706;DHT22;10514;49.468;11.044;2023-09-30T11:27:03;21.60;57.40
20706;DHT22;10514;49.468;11.044;2023-09-30T11:29:29;21.70;57.60
20706;DHT22;10514;49.468;11.044;2023-09-30T11:31:55;21.60;56.80
20706;DHT22;10514;49.468;11.044;2023-09-30T11:34:31;21.70;58.10
20706;DHT22;10514;49.468;11.044;2023-09-30T11:36:58;21.40;57.00
20706;DHT22;10514;49.468;11.044;2023-09-30T11:39:27;21.40;56.70
20706;DHT22;10514;49.468;11.044;2023-09-30T11:41:53;21.30;57.80
20706;DHT22;10514;49.468;11.044;2023-09-30T11:44:20;21.40;58.30
20706;DHT22;10514;49.468;11.044;2023-09-30T11:46:53;21.30;58.60
20706;DHT22;10514;49.468;11.044;2023-09-30T11:49:29;21.20;57.20
20706;DHT22;10514;49.468;11.044;2023-09-30T11:51:56;21.20;57.20
20706;DHT22;10514;49.468;11.044;2023-09-30T11:54:22;21.20;56.80
20706;DHT22;10514;49.468;11.044;2023-09-30T11:56:53;21.30;57.70
20706;DHT22;10514;49.468;11.044;2023-09-30T11:59:19;21.30;58.10
20706;DHT22;10514;49.468;11.044;2023-09-30T12:01:48;21.30;56.30
20706;DHT22;10514;49.468;11.044;2023-09-30T12:04:20;21.10;57.50
20706;DHT22;10514;49.468;11.044;2023-09-30T12:06:47;20.70;58.10
20706;DHT22;10514;49.468;11.044;2023-09-30T12:09:16;20.30;59.00
20706;DHT22;10514;49.468;11.044;2023-09-30T12:11:47;20.20;61.80
20706;DHT22;10514;49.468;11.044;2023-09-30T12:14:13;20.50;61.20
20706;DHT22;10514;49.468;11.044;2023-09-30T12:16:39;20.70;60.80
20706;DHT22;10514;49.468;11.044;2023-09-30T12:19:05;20.90;59.70
20706;DHT22;10514;49.468;11.044;2023-09-30T12:21:34;21.20;60.40
20706;DHT22;10514;49.468;11.044;2023-09-30T12:24:00;21.40;58.00
20706;DHT22;10514;49.468;11.044;2023-09-30T12:26:28;21.60;57.30
20706;DHT22;10514;49.468;11.044;2023-09-30T12:28:55;21.70;57.70
20706;DHT22;10514;49.468;11.044;2023-09-30T12:31:20;21.80;56.90
20706;DHT22;10514;49.468;11.044;2023-09-30T12:33:47;21.80;57.20
20706;DHT22;10514;49.468;11.044;2023-09-30T12:36:18;21.80;56.20
20706;DHT22;10514;49.468;11.044;2023-09-30T12:38:43;21.50;56.30
20706;DHT22;10514;49.468;11.044;2023-09-30T12:41:10;21.40;57.40
20706;DHT22;10514;49.468;11.044;2023-09-30T12:43:36;21.50;57.30
20706;DHT22;10514;49.468;11.044;2023-09-30T12:46:02;21.30;56.80
20706;DHT22;10514;49.468;11.044;2023-09-30T12:48:27;21.30;57.00
20706;DHT22;10514;49.468;11.044;2023-09-30T12:50:53;21.10;56.40
20706;DHT22;10514;49.468;11.044;2023-09-30T12:53:18;20.90;56.80
20706;DHT22;10514;49.468;11.044;2023-09-30T12:55:44;20.90;57.90
20706;DHT22;10514;49.468;11.044;2023-09-30T12:58:11;20.80;57.70
20706;DHT22;10514;49.468;11.044;2023-09-30T13:00:36;20.80;58.50
20706;DHT22;10514;49.468;11.044;2023-09-30T13:03:03;20.80;56.30
20706;DHT22;10514;49.468;11.044;2023-09-30T13:05:28;20.80;58.10
20706;DHT22;10514;49.468;11.044;2023-09-30T13:07:57;20.90;58.00
20706;DHT22;10514;49.468;11.044;2023-09-30T13:10:23;20.90;57.60
20706;DHT22;10514;49.468;11.044;2023-09-30T13:12:49;21.10;56.10
20706;DHT22;10514;49.468;11.044;2023-09-30T13:15:19;21.10;56.10
20706;DHT22;10514;49.468;11.044;2023-09-30T13:17:45;21.20;57.10
20706;DHT22;10514;49.468;11.044;2023-09-30T13:20:11;21.20;55.80
20706;DHT22;10514;49.468;11.044;2023-09-30T13:22:38;21.30;54.70
20706;DHT22;10514;49.468;11.044;2023-09-30T13:25:04;21.30;55.00
20706;DHT22;10514;49.468;11.044;2023-09-30T13:27:31;21.40;55.90
20706;DHT22;10514;49.468;11.044;2023-09-30T13:29:57;21.50;55.90
20706;DHT22;10514;49.468;11.044;2023-09-30T13:32:24;21.40;54.60
20706;DHT22;10514;49.468;11.044;2023-09-30T13:34:53;21.30;55.70
20706;DHT22;10514;49.468;11.044;2023-09-30T13:37:19;21.40;55.30
20706;DHT22;10514;49.468;11.044;2023-09-30T13:39:45;21.30;54.00
20706;DHT22;10514;49.468;11.044;2023-09-30T13:42:10;21.40;55.00
20706;DHT22;10514;49.468;11.044;2023-09-30T13:44:36;21.30;54.10
20706;DHT22;10514;49.468;11.044;2023-09-30T13:47:04;21.10;54.60
20706;DHT22;10514;49.468;11.044;2023-09-30T13:49:29;21.10;55.60
20706;DHT22;10514;49.468;11.044;2023-09-30T13:51:59;21.10;55.50
20706;DHT22;10514;49.468;11.044;2023-09-30T13:54:24;20.90;54.70
20706;DHT22;10514;49.468;11.044;2023-09-30T13:56:50;20.70;55.50
20706;DHT22;10514;49.468;11.044;2023-09-30T13:59:15;20.80;56.50
20706;DHT22;10514;49.468;11.044;2023-09-30T14:01:41;21.00;56.80
20706;DHT22;10514;49.468;11.044;2023-09-30T14:04:07;21.00;56.80
20706;DHT22;10514;49.468;11.044;2023-09-30T14:06:33;21.00;57.10
20706;DHT22;10514;49.468;11.044;2023-09-30T14:08:58;24.00;58.90
20706;DHT22;10514;49.468;11.044;2023-09-30T14:11:26;20.80;57.10
20706;DHT22;10514;49.468;11.044;2023-09-30T14:13:52;20.70;56.40
20706;DHT22;10514;49.468;11.044;2023-09-30T14:16:18;20.70;57.00
20706;DHT22;10514;49.468;11.044;2023-09-30T14:18:44;20.60;56.60
20706;DHT22;10514;49.468;11.044;2023-09-30T14:21:10;20.50;57.10
20706;DHT22;10514;49.468;11.044;2023-09-30T14:23:36;20.50;58.20
20706;DHT22;10514;49.468;11.044;2023-09-30T14:26:02;20.50;58.60
20706;DHT22;10514;49.468;11.044;2023-09-30T14:28:36;20.40;57.70
20706;DHT22;10514;49.468;11.044;2023-09-30T14:31:05;20.40;58.60
20706;DHT22;10514;49.468;11.044;2023-09-30T14:33:31;20.40;57.70
20706;DHT22;10514;49.468;11.044;2023-09-30T14:35:57;20.30;57.50
20706;DHT22;10514;49.468;11.044;2023-09-30T14:38:22;20.10;58.10
20706;DHT22;10514;49.468;11.044;2023-09-30T14:40:48;19.90;58.90
20706;DHT22;10514;49.468;11.044;2023-09-30T14:43:15;19.90;60.00
20706;DHT22;10514;49.468;11.044;2023-09-30T14:45:41;19.90;60.30
20706;DHT22;10514;49.468;11.044;2023-09-30T14:48:07;19.80;60.10
20706;DHT22;10514;49.468;11.044;2023-09-30T14:50:33;19.80;59.70
20706;DHT22;10514;49.468;11.044;2023-09-30T14:52:58;19.80;60.50
20706;DHT22;10514;49.468;11.044;2023-09-30T14:55:24;19.80;61.50
20706;DHT22;10514;49.468;11.044;2023-09-30T14:57:50;21.10;60.70
20706;DHT22;10514;49.468;11.044;2023-09-30T15:00:15;19.70;60.70
20706;DHT22;10514;49.468;11.044;2023-09-30T15:02:42;19.60;60.20
20706;DHT22;10514;49.468;11.044;2023-09-30T15:05:07;19.60;60.10
20706;DHT22;10514;49.468;11.044;2023-09-30T15:07:34;19.50;59.70
20706;DHT22;10514;49.468;11.044;2023-09-30T15:10:03;19.50;60.40
20706;DHT22;10514;49.468;11.044;2023-09-30T15:12:29;19.40;60.90
20706;DHT22;10514;49.468;11.044;2023-09-30T15:14:55;19.40;62.10
20706;DHT22;10514;49.468;11.044;2023-09-30T15:17:22;19.30;61.60
20706;DHT22;10514;49.468;11.044;2023-09-30T15:19:47;19.30;62.20
20706;DHT22;10514;49.468;11.044;2023-09-30T15:22:13;19.20;62.60
20706;DHT22;10514;49.468;11.044;2023-09-30T15:24:38;19.20;62.20
20706;DHT22;10514;49.468;11.044;2023-09-30T15:27:04;19.20;62.00
20706;DHT22;10514;49.468;11.044;2023-09-30T15:29:29;19.10;63.20
20706;DHT22;10514;49.468;11.044;2023-09-30T15:31:55;19.10;64.50
20706;DHT22;10514;49.468;11.044;2023-09-30T15:34:20;19.00;64.00